Brookton, Maine
Current Conditions -  °F | °C
As of 1:09 AM on Friday 19 Dec 2014 (Local Time) from KHUL Reporting Station
Overcast Overcast  
Wind Chill: 13°   Ceiling: 2000
Heat Index: 25°   Visibility: 10mi
Dew Point: 21°   Wind: 14mph
Humidity: 85%   Direction: 330°NNW
Pressure: 29.67"   Gusts: 20mph
Location:  45.53°N, 67.76°W
Report Text: KHUL 190609Z AUTO 33012G17KT 10SM BKN020 OVC039 M04/M06 A2967 RMK AO2 T10391061
Loading
Personal Weather Stations






























Interactive Weather Map New forecast layout! Learn more

10-Day Weather Forecast

Advertisements
Track Severe Weather on mobile